Minsk, Belarus
Current Conditions -  °F | °C
As of 2:00 PM on Sunday 23 Nov 2014 (Local Time) from UMMM Reporting Station
Clear Clear  
Wind Chill: 32°   Ceiling: Unl
Heat Index: 32°   Visibility: 6mi
Dew Point: 21°   Wind: 0mph
Humidity: 64%   Direction: NA
Pressure: 30.48"   Gusts: NA
Location:  53.91°N, 27.55°E
Report Text: UMMM 231200Z 00000MPS 9999 CAVOK 00/M06 Q1032 R12/920240 NOSIGRMK QFE753
Loading
Personal Weather Stations






























Interactive Weather Map New forecast layout! Learn more

10-Day Weather Forecast

Advertisements
Track Severe Weather on mobile